Time;durP1;ratioP1;P1;durP2;ratioP2;P2;SDS_P1;SDS_P2;PMS_P1;PMS_P2;Temp;Humidity;BMP_temperature;BMP_pressure;BME280_temperature;BME280_humidity;BME280_pressure;Samples;Min_cycle;Max_cycle;Signal;HPM_P1;HPM_P2
2021/05/09 07:56:51;;;;;;;1.67;1.43;;;19.40;99.90;;;;;;4562861;24;81886;-84
2021/05/09 07:59:16;;;;;;;2.30;1.77;;;19.70;99.90;;;;;;4354860;31;30970;-84
2021/05/09 08:01:42;;;;;;;3.53;1.73;;;20.00;99.90;;;;;;4208567;33;20244;-83
2021/05/09 08:04:07;;;;;;;2.63;1.73;;;20.30;99.90;;;;;;4169266;34;31029;-85
2021/05/09 08:06:33;;;;;;;4.00;1.77;;;20.10;99.90;;;;;;4133178;34;20774;-84
2021/05/09 08:08:59;;;;;;;4.13;1.60;;;20.40;99.90;;;;;;4095482;34;20361;-84
2021/05/09 08:11:24;;;;;;;2.30;1.70;;;20.50;99.90;;;;;;4095168;35;20249;-84
2021/05/09 08:13:50;;;;;;;1.67;1.57;;;20.80;99.90;;;;;;4116260;34;20249;-84
2021/05/09 08:16:16;;;;;;;1.60;1.50;;;21.00;99.90;;;;;;4126837;34;20241;-86
2021/05/09 08:18:41;;;;;;;5.73;1.63;;;21.40;99.90;;;;;;4095293;35;20261;-86
2021/05/09 08:21:07;;;;;;;1.80;1.50;;;21.50;99.90;;;;;;4116009;34;20218;-83
2021/05/09 08:23:35;;;;;;;2.93;1.57;;;21.30;99.90;;;;;;4095069;35;20218;-83
2021/05/09 08:26:01;;;;;;;6.80;2.20;;;21.40;99.90;;;;;;4126570;34;20268;-84
2021/05/09 08:28:29;;;;;;;4.37;1.60;;;21.50;99.90;;;;;;4095207;35;20461;-83
2021/05/09 08:30:54;;;;;;;2.50;1.63;;;21.60;99.90;;;;;;4126605;34;20742;-85
2021/05/09 08:33:20;;;;;;;2.33;1.50;;;22.00;99.90;;;;;;4116097;34;20477;-82
2021/05/09 08:35:46;;;;;;;2.23;1.50;;;22.30;99.90;;;;;;4126857;34;20273;-84
2021/05/09 08:38:11;;;;;;;3.80;1.70;;;22.90;99.90;;;;;;4115885;34;20221;-85
2021/05/09 08:40:37;;;;;;;2.10;1.50;;;22.80;99.90;;;;;;4094814;35;20228;-84
2021/05/09 08:43:03;;;;;;;5.50;1.80;;;23.10;99.90;;;;;;4107472;34;20253;-84
2021/05/09 08:45:28;;;;;;;1.90;1.70;;;23.20;99.90;;;;;;4106820;34;20257;-84
2021/05/09 08:47:55;;;;;;;3.00;1.33;;;22.90;99.90;;;;;;4106746;34;20230;-84
2021/05/09 08:50:25;;;;;;;2.67;1.97;;;22.60;99.90;;;;;;4086211;35;20242;-80
2021/05/09 08:52:51;;;;;;;1.27;1.17;;;22.70;99.90;;;;;;4107115;34;20846;-80
2021/05/09 08:55:22;;;;;;;1.63;1.10;;;23.10;99.90;;;;;;4083564;35;20508;-80
2021/05/09 08:57:48;;;;;;;2.90;1.83;;;23.00;99.90;;;;;;4174407;33;20681;-80
2021/05/09 09:00:15;;;;;;;1.40;1.30;;;22.90;99.90;;;;;;4290003;33;20471;-81
2021/05/09 09:02:43;;;;;;;3.13;1.63;;;22.80;99.90;;;;;;4374381;32;39809;-79
2021/05/09 09:05:10;;;;;;;2.67;1.63;;;22.90;99.90;;;;;;4407015;32;20482;-80
2021/05/09 09:07:47;;;;;;;2.00;1.63;;;23.40;99.90;;;;;;4409868;32;20473;-81
2021/05/09 09:10:32;;;;;;;1.70;1.60;;;23.50;99.90;;;;;;4410165;32;20527;-79
2021/05/09 09:13:02;;;;;;;3.00;1.60;;;23.40;99.90;;;;;;4409985;32;20547;-80
2021/05/09 09:15:51;;;;;;;2.53;1.60;;;23.30;99.90;;;;;;4409622;32;20473;-79
2021/05/09 09:18:34;;;;;;;3.93;2.10;;;23.70;99.90;;;;;;4434440;32;20965;-80
2021/05/09 09:21:31;;;;;;;3.33;1.40;;;24.00;99.90;;;;;;4409882;32;20479;-80
2021/05/09 09:24:05;;;;;;;2.00;1.50;;;24.00;99.90;;;;;;4409950;32;20458;-81
2021/05/09 09:26:37;;;;;;;2.00;1.40;;;24.00;99.90;;;;;;4409566;32;20481;-79
2021/05/09 09:29:19;;;;;;;1.40;1.30;;;24.00;99.90;;;;;;4409807;32;20519;-79
2021/05/09 09:31:46;;;;;;;2.57;1.73;;;24.00;99.90;;;;;;4409676;32;20566;-78
2021/05/09 09:34:13;;;;;;;1.40;1.23;;;24.40;99.90;;;;;;4409649;32;21024;-81
2021/05/09 09:36:39;;;;;;;3.53;1.70;;;24.90;99.90;;;;;;4409832;32;20914;-80
2021/05/09 09:39:06;;;;;;;3.70;1.50;;;24.80;99.90;;;;;;4409771;32;20453;-79
2021/05/09 09:41:32;;;;;;;3.47;1.73;;;24.80;99.90;;;;;;4409486;32;20514;-79
2021/05/09 09:44:17;;;;;;;2.20;1.37;;;25.10;99.90;;;;;;4409559;32;20453;-80
2021/05/09 09:46:54;;;;;;;1.80;1.40;;;24.60;99.90;;;;;;4409537;32;20268;-80
2021/05/09 09:49:19;;;;;;;3.50;2.03;;;24.50;99.90;;;;;;4409408;32;20445;-80
2021/05/09 09:51:50;;;;;;;2.50;1.90;;;24.30;99.90;;;;;;4409296;32;20864;-81
2021/05/09 09:54:42;;;;;;;4.00;1.93;;;24.20;99.90;;;;;;4419881;32;20217;-80
2021/05/09 09:57:20;;;;;;;2.83;2.03;;;24.60;99.90;;;;;;4453672;31;20520;-78
2021/05/09 10:00:08;;;;;;;4.00;1.80;;;24.90;99.90;;;;;;4535398;31;20815;-79
2021/05/09 10:02:34;;;;;;;1.90;1.70;;;25.60;99.90;;;;;;4597820;31;20497;-81
2021/05/09 10:05:00;;;;;;;2.23;1.70;;;26.00;99.90;;;;;;4606334;30;20577;-78
2021/05/09 10:07:27;;;;;;;2.73;1.50;;;26.10;99.90;;;;;;4599731;31;20204;-79
2021/05/09 10:09:56;;;;;;;4.17;1.80;;;26.50;99.90;;;;;;4599463;31;20493;-80
2021/05/09 10:12:28;;;;;;;1.80;1.60;;;26.80;99.90;;;;;;4599696;31;20479;-80
2021/05/09 10:14:54;;;;;;;3.30;1.63;;;26.60;99.90;;;;;;4599410;31;20450;-80
2021/05/09 10:17:24;;;;;;;1.90;1.70;;;27.10;99.90;;;;;;4626229;30;21012;-81
2021/05/09 10:19:51;;;;;;;1.47;1.37;;;27.60;99.90;;;;;;4599794;31;20925;-81
2021/05/09 10:22:34;;;;;;;4.00;1.73;;;27.70;99.90;;;;;;4599509;31;20442;-81
2021/05/09 10:25:02;;;;;;;4.90;1.33;;;28.10;99.90;;;;;;4599459;31;20513;-81
2021/05/09 10:27:39;;;;;;;1.60;1.23;;;27.80;99.90;;;;;;4599871;31;20948;-82
2021/05/09 10:30:10;;;;;;;2.83;1.83;;;28.30;99.90;;;;;;4599506;31;20933;-81
2021/05/09 10:32:35;;;;;;;2.13;1.40;;;28.20;99.90;;;;;;4599577;31;20435;-80
2021/05/09 10:35:08;;;;;;;2.20;1.47;;;28.30;99.90;;;;;;4599264;31;20941;-80
2021/05/09 10:40:26;;;;;;;3.53;1.53;;;27.40;99.90;;;;;;4599509;31;20526;-80
2021/05/09 10:43:01;;;;;;;2.37;1.83;;;27.50;99.90;;;;;;4599528;31;20937;-80
2021/05/09 10:45:34;;;;;;;2.40;1.57;;;27.30;99.90;;;;;;4598983;31;20541;-80
2021/05/09 10:48:22;;;;;;;2.90;1.80;;;27.30;99.90;;;;;;4599446;31;20431;-80
2021/05/09 10:50:49;;;;;;;4.80;1.93;;;27.30;99.90;;;;;;4599466;31;20830;-80
2021/05/09 10:53:40;;;;;;;2.80;1.57;;;27.30;99.90;;;;;;4599265;31;20442;-80
2021/05/09 10:56:08;;;;;;;2.47;1.60;;;27.40;99.90;;;;;;4629361;30;20845;-79
2021/05/09 10:58:39;;;;;;;2.57;1.80;;;27.50;99.90;;;;;;4590007;30;20449;-79
2021/05/09 11:01:08;;;;;;;5.30;1.70;;;27.60;99.90;;;;;;4675167;30;20449;-80
2021/05/09 11:03:37;;;;;;;7.73;1.90;;;27.80;99.90;;;;;;4765342;30;20440;-81
2021/05/09 11:06:19;;;;;;;2.23;1.53;;;27.90;99.90;;;;;;4770675;30;20832;-79
2021/05/09 11:08:45;;;;;;;1.80;1.60;;;28.10;99.90;;;;;;4770694;30;20426;-80
2021/05/09 11:11:19;;;;;;;1.77;1.50;;;28.10;99.90;;;;;;4770677;30;20472;-80
2021/05/09 11:14:04;;;;;;;6.23;2.07;;;27.80;99.90;;;;;;4770544;30;20421;-80
2021/05/09 11:16:35;;;;;;;2.10;1.47;;;27.80;99.90;;;;;;4770053;30;20441;-80
2021/05/09 11:19:03;;;;;;;5.67;1.90;;;28.00;99.90;;;;;;4770365;30;20438;-82
2021/05/09 11:21:31;;;;;;;2.10;1.50;;;28.30;99.90;;;;;;4770242;30;20432;-80
2021/05/09 11:24:01;;;;;;;10.47;2.20;;;28.60;99.90;;;;;;4754216;30;20904;-79
2021/05/09 11:26:29;;;;;;;1.80;1.20;;;28.70;99.90;;;;;;4769883;30;20453;-79
2021/05/09 11:29:07;;;;;;;1.90;1.37;;;29.10;99.90;;;;;;4770223;30;20744;-80
2021/05/09 11:31:38;;;;;;;3.23;1.80;;;29.30;99.90;;;;;;4770186;30;20469;-79
2021/05/09 11:34:04;;;;;;;2.27;1.60;;;29.70;99.90;;;;;;4770244;30;20517;-82
2021/05/09 11:36:32;;;;;;;2.63;1.47;;;30.20;99.90;;;;;;4769768;30;20917;-81
2021/05/09 11:39:06;;;;;;;12.70;1.77;;;30.90;99.90;;;;;;4770441;30;20436;-81
2021/05/09 11:41:48;;;;;;;3.50;1.63;;;31.20;99.90;;;;;;4770222;30;20903;-82
2021/05/09 11:44:13;;;;;;;1.50;1.40;;;31.10;99.90;;;;;;4769788;30;20946;-82
2021/05/09 11:46:39;;;;;;;4.90;1.43;;;31.30;99.90;;;;;;4770031;30;20437;-83
2021/05/09 11:49:20;;;;;;;4.00;1.40;;;31.50;98.10;;;;;;4770160;30;20215;-82
2021/05/09 11:51:54;;;;;;;3.00;1.67;;;32.00;96.40;;;;;;4770098;30;20223;-83
2021/05/09 11:54:22;;;;;;;2.40;1.30;;;32.10;95.10;;;;;;4769759;30;20435;-81
2021/05/09 11:57:01;;;;;;;1.53;1.30;;;32.00;94.70;;;;;;4783609;29;20439;-82
2021/05/09 11:59:52;;;;;;;4.80;1.50;;;32.00;93.20;;;;;;4833268;29;20444;-85
2021/05/09 12:02:21;;;;;;;2.07;1.40;;;32.00;93.10;;;;;;4822815;29;20438;-86
2021/05/09 12:04:51;;;;;;;3.97;1.73;;;32.70;92.00;;;;;;4823693;29;20462;-84
2021/05/09 12:07:21;;;;;;;3.27;1.83;;;32.80;92.10;;;;;;4822975;29;20434;-86
2021/05/09 12:09:56;;;;;;;4.50;1.33;;;32.30;90.60;;;;;;4822728;29;20435;-85
2021/05/09 12:12:23;;;;;;;1.33;1.23;;;32.40;90.90;;;;;;4824043;29;20756;-85
2021/05/09 12:14:52;;;;;;;2.83;1.67;;;32.70;87.70;;;;;;4823460;29;20838;-83
2021/05/09 12:17:22;;;;;;;5.40;1.30;;;32.80;88.30;;;;;;4824107;29;20447;-85
2021/05/09 12:19:48;;;;;;;1.63;1.40;;;32.50;89.00;;;;;;4841007;29;20419;-84
2021/05/09 12:22:14;;;;;;;1.50;1.20;;;33.10;87.90;;;;;;4826261;29;20422;-86
2021/05/09 12:24:48;;;;;;;2.00;1.53;;;33.40;85.30;;;;;;4826676;29;20442;-81
2021/05/09 12:27:15;;;;;;;2.83;1.50;;;33.40;84.80;;;;;;4841586;29;20431;-85
2021/05/09 12:29:54;;;;;;;2.20;1.20;;;33.90;80.40;;;;;;4826261;29;20916;-80
2021/05/09 12:32:33;;;;;;;3.17;1.40;;;33.90;75.90;;;;;;4827350;29;20907;-81
2021/05/09 12:35:06;;;;;;;1.47;1.20;;;33.10;73.50;;;;;;4840753;29;20438;-80
2021/05/09 12:37:41;;;;;;;2.60;1.27;;;32.40;73.40;;;;;;4825548;29;20434;-79
2021/05/09 12:40:22;;;;;;;2.83;1.30;;;32.70;73.30;;;;;;4827095;29;20428;-80
2021/05/09 12:43:07;;;;;;;2.47;1.40;;;32.60;73.50;;;;;;4826962;29;20426;-79
2021/05/09 12:45:38;;;;;;;1.50;1.10;;;32.70;77.50;;;;;;4826590;29;20469;-80
2021/05/09 12:48:10;;;;;;;3.67;1.07;;;33.20;72.80;;;;;;4825553;29;20441;-80
2021/05/09 12:50:58;;;;;;;1.87;1.53;;;33.10;73.50;;;;;;4826606;29;20461;-79
2021/05/09 12:53:42;;;;;;;1.30;1.07;;;32.50;73.20;;;;;;4826633;29;20433;-82
2021/05/09 12:56:31;;;;;;;3.90;1.40;;;32.40;73.40;;;;;;4809595;29;20455;-80
2021/05/09 12:59:11;;;;;;;1.73;1.17;;;32.50;73.00;;;;;;4843012;29;20447;-76
2021/05/09 13:02:01;;;;;;;1.60;1.10;;;33.40;69.90;;;;;;4792238;29;737659;-79
2021/05/09 13:04:44;;;;;;;1.57;1.43;;;33.70;70.40;;;;;;4855781;29;20189;-81
2021/05/09 13:07:14;;;;;;;2.53;1.27;;;33.30;73.30;;;;;;4825034;29;20778;-81
2021/05/09 13:09:42;;;;;;;2.33;1.47;;;33.40;70.00;;;;;;4855737;29;20446;-80
2021/05/09 13:12:08;;;;;;;1.50;1.30;;;34.00;69.70;;;;;;4826412;29;20427;-80
2021/05/09 13:14:49;;;;;;;2.70;1.57;;;33.80;69.40;;;;;;4825941;29;21009;-81
2021/05/09 13:17:16;;;;;;;2.03;1.50;;;33.10;71.00;;;;;;4826184;29;20479;-81
2021/05/09 13:19:42;;;;;;;1.67;1.40;;;32.70;70.60;;;;;;4824951;29;20952;-81
2021/05/09 13:22:09;;;;;;;1.83;1.50;;;33.50;71.30;;;;;;4826191;29;20462;-80
2021/05/09 13:24:36;;;;;;;1.47;1.17;;;33.40;70.80;;;;;;4825856;29;20469;-80
2021/05/09 13:27:02;;;;;;;2.03;1.47;;;34.00;69.40;;;;;;4826088;29;20488;-80
2021/05/09 13:29:28;;;;;;;2.67;1.53;;;33.50;71.30;;;;;;4825888;29;20422;-79
2021/05/09 13:31:54;;;;;;;2.60;1.30;;;33.50;70.70;;;;;;4826022;29;20882;-80
2021/05/09 13:34:19;;;;;;;3.23;1.50;;;34.00;69.60;;;;;;4825801;29;20762;-80
2021/05/09 13:36:45;;;;;;;2.67;1.23;;;34.20;68.30;;;;;;4826006;29;20192;-80
2021/05/09 13:39:12;;;;;;;1.50;1.20;;;34.20;70.30;;;;;;4826083;29;20186;-81
2021/05/09 13:41:38;;;;;;;5.43;1.60;;;34.60;68.10;;;;;;4826166;29;20295;-79
2021/05/09 13:44:05;;;;;;;4.50;1.60;;;34.10;69.30;;;;;;4826102;29;20427;-79
2021/05/09 13:46:31;;;;;;;3.13;1.60;;;33.40;69.70;;;;;;4825636;29;20485;-80
2021/05/09 13:48:56;;;;;;;3.13;1.63;;;33.00;70.60;;;;;;4825847;29;20435;-79
2021/05/09 13:51:22;;;;;;;4.33;1.47;;;33.80;67.90;;;;;;4825794;29;20527;-81
2021/05/09 13:53:48;;;;;;;3.20;1.67;;;34.30;67.10;;;;;;4825829;29;20603;-80
2021/05/09 13:56:14;;;;;;;2.07;1.57;;;34.50;66.80;;;;;;4824018;29;20213;-80
2021/05/09 13:58:39;;;;;;;3.20;1.83;;;34.40;66.40;;;;;;4818583;29;20200;-80
2021/05/09 14:01:05;;;;;;;2.00;1.30;;;34.10;64.70;;;;;;4843739;29;20692;-80
2021/05/09 14:03:31;;;;;;;1.77;1.40;;;33.00;67.20;;;;;;4843881;29;20220;-79
2021/05/09 14:05:57;;;;;;;2.07;1.53;;;33.80;67.90;;;;;;4843422;29;20845;-80
2021/05/09 14:08:22;;;;;;;1.63;1.50;;;34.10;66.80;;;;;;4843958;29;20189;-80
2021/05/09 14:10:48;;;;;;;2.03;1.50;;;35.00;67.70;;;;;;4843683;29;20260;-80
2021/05/09 14:13:15;;;;;;;3.33;1.30;;;35.90;65.20;;;;;;4843671;29;20212;-79
2021/05/09 14:15:41;;;;;;;1.93;1.40;;;35.10;63.60;;;;;;4843164;29;20200;-80
2021/05/09 14:18:07;;;;;;;2.87;1.53;;;35.20;64.40;;;;;;4843569;29;20572;-80
2021/05/09 14:20:34;;;;;;;1.47;1.10;;;34.20;64.10;;;;;;4843603;29;20474;-81
2021/05/09 14:23:00;;;;;;;3.23;1.30;;;34.20;65.20;;;;;;4843451;29;20516;-81
2021/05/09 14:25:26;;;;;;;2.60;1.30;;;34.80;64.10;;;;;;4843066;29;20958;-80
2021/05/09 14:27:51;;;;;;;5.40;1.20;;;34.90;62.20;;;;;;4843333;29;20512;-80
2021/05/09 14:30:17;;;;;;;2.20;1.50;;;34.60;63.10;;;;;;4843443;29;20223;-80
2021/05/09 14:32:43;;;;;;;4.40;1.93;;;34.60;63.40;;;;;;4843464;29;20555;-80
2021/05/09 14:35:09;;;;;;;3.50;1.30;;;34.60;63.20;;;;;;4842959;29;20456;-81
2021/05/09 14:37:35;;;;;;;1.90;1.70;;;35.00;62.50;;;;;;4843375;29;20253;-80
2021/05/09 14:40:01;;;;;;;1.40;1.10;;;33.40;61.90;;;;;;4842734;29;20915;-81
2021/05/09 14:42:27;;;;;;;2.70;1.43;;;33.40;63.70;;;;;;4843236;29;20193;-80
2021/05/09 14:44:52;;;;;;;2.50;1.50;;;34.10;63.90;;;;;;4842763;29;20287;-80
2021/05/09 14:47:18;;;;;;;2.17;1.30;;;33.80;63.70;;;;;;4843304;29;20193;-81
2021/05/09 14:49:45;;;;;;;3.10;1.20;;;34.00;63.70;;;;;;4842926;29;20192;-81
2021/05/09 14:52:11;;;;;;;2.20;1.40;;;34.60;63.90;;;;;;4842948;29;20180;-81
2021/05/09 14:54:37;;;;;;;1.80;1.50;;;34.10;62.10;;;;;;4842747;29;20442;-80
2021/05/09 14:57:05;;;;;;;3.57;1.20;;;34.40;61.20;;;;;;4839714;29;20571;-80
2021/05/09 14:59:31;;;;;;;1.87;1.60;;;33.90;65.60;;;;;;4824990;29;20197;-80
2021/05/09 15:01:57;;;;;;;1.83;1.40;;;34.60;62.20;;;;;;4854234;29;20441;-81
2021/05/09 15:04:24;;;;;;;5.10;1.53;;;34.90;60.20;;;;;;4823308;29;20186;-81
2021/05/09 15:06:49;;;;;;;1.63;1.30;;;35.00;61.30;;;;;;4824983;29;20555;-81
2021/05/09 15:09:15;;;;;;;1.43;1.13;;;34.80;59.20;;;;;;4823586;29;20493;-80
2021/05/09 15:11:40;;;;;;;2.90;1.60;;;34.20;57.90;;;;;;4824705;29;20291;-81
2021/05/09 15:14:06;;;;;;;3.27;1.63;;;33.30;59.80;;;;;;4824484;29;20694;-82
2021/05/09 15:16:32;;;;;;;3.53;1.60;;;33.20;61.20;;;;;;4824539;29;20208;-81
2021/05/09 15:18:58;;;;;;;4.53;1.40;;;32.70;60.60;;;;;;4824686;29;20189;-81
2021/05/09 15:21:23;;;;;;;5.57;1.50;;;32.90;60.70;;;;;;4824700;29;20213;-81
2021/05/09 15:23:49;;;;;;;1.83;1.20;;;32.80;60.70;;;;;;4824542;29;20207;-80
2021/05/09 15:26:17;;;;;;;2.10;1.43;;;32.60;61.60;;;;;;4823931;29;20580;-80
2021/05/09 15:28:43;;;;;;;3.47;1.50;;;32.10;62.40;;;;;;4823363;29;20190;-81
2021/05/09 15:31:08;;;;;;;1.90;1.30;;;31.70;62.60;;;;;;4823379;29;20474;-80
2021/05/09 15:33:34;;;;;;;2.50;1.40;;;31.40;63.30;;;;;;4823519;29;20193;-81
2021/05/09 15:35:59;;;;;;;5.43;1.60;;;31.60;64.40;;;;;;4824186;29;20206;-81
2021/05/09 15:38:25;;;;;;;4.50;1.30;;;31.40;65.10;;;;;;4824255;29;20642;-81
2021/05/09 15:40:51;;;;;;;4.20;1.63;;;31.30;65.70;;;;;;4823208;29;20181;-79
2021/05/09 15:43:16;;;;;;;2.80;1.47;;;31.30;65.00;;;;;;4824415;29;20250;-81
2021/05/09 15:45:42;;;;;;;1.50;1.40;;;31.50;66.20;;;;;;4824145;29;20215;-80
2021/05/09 15:48:07;;;;;;;1.70;1.40;;;31.70;64.90;;;;;;4824509;29;20181;-82
2021/05/09 15:50:33;;;;;;;2.80;1.50;;;31.70;64.90;;;;;;4824279;29;20711;-80
2021/05/09 15:52:59;;;;;;;2.60;1.40;;;32.00;63.60;;;;;;4827002;29;20269;-81
2021/05/09 15:55:24;;;;;;;2.30;1.50;;;31.60;64.10;;;;;;4827527;29;20205;-80
2021/05/09 15:57:53;;;;;;;2.53;1.20;;;31.70;63.60;;;;;;4817136;29;20255;-80
2021/05/09 16:00:20;;;;;;;1.67;1.23;;;31.40;64.50;;;;;;4809536;29;20182;-80
2021/05/09 16:02:47;;;;;;;2.77;1.43;;;31.90;65.10;;;;;;4809424;29;20483;-81
2021/05/09 16:05:13;;;;;;;3.07;1.50;;;32.60;64.60;;;;;;4809131;29;20787;-79
2021/05/09 16:07:39;;;;;;;1.53;1.37;;;32.30;63.60;;;;;;4809515;29;20434;-79
2021/05/09 16:10:05;;;;;;;3.50;1.30;;;32.10;64.10;;;;;;4809213;29;20459;-80
2021/05/09 16:12:31;;;;;;;2.13;1.60;;;32.20;65.40;;;;;;4809303;29;20189;-81
2021/05/09 16:15:01;;;;;;;3.20;1.60;;;32.50;65.90;;;;;;4808727;29;20949;-81
2021/05/09 16:17:27;;;;;;;1.90;1.37;;;32.50;64.90;;;;;;4809249;29;20215;-81
2021/05/09 16:19:52;;;;;;;3.57;2.43;;;32.30;63.20;;;;;;4809051;29;20420;-81
2021/05/09 16:22:18;;;;;;;1.77;1.67;;;31.70;64.40;;;;;;4809195;29;20213;-80
2021/05/09 16:24:43;;;;;;;2.70;1.70;;;31.10;62.70;;;;;;4808525;29;20213;-80
2021/05/09 16:27:09;;;;;;;5.80;1.40;;;30.80;64.20;;;;;;4809024;29;20185;-80
2021/05/09 16:29:35;;;;;;;1.83;1.33;;;30.70;65.80;;;;;;4809043;29;20178;-80
2021/05/09 16:32:00;;;;;;;3.97;3.43;;;30.60;65.80;;;;;;4808912;29;20210;-80
2021/05/09 16:34:26;;;;;;;3.83;1.70;;;30.30;66.70;;;;;;4808682;29;20557;-80
2021/05/09 16:36:51;;;;;;;4.73;1.40;;;30.40;67.20;;;;;;4809088;29;20184;-80
2021/05/09 16:39:17;;;;;;;3.00;1.40;;;30.60;65.20;;;;;;4838363;29;20529;-82
2021/05/09 16:41:43;;;;;;;1.50;1.23;;;30.70;64.80;;;;;;4808998;29;20269;-81
2021/05/09 16:44:08;;;;;;;2.80;1.50;;;30.80;65.40;;;;;;4837756;29;20191;-82
2021/05/09 16:46:34;;;;;;;2.03;1.10;;;31.00;64.80;;;;;;4808902;29;20206;-80
2021/05/09 16:49:00;;;;;;;6.37;1.50;;;31.10;64.50;;;;;;4808779;29;20289;-78
2021/05/09 16:51:27;;;;;;;4.00;1.60;;;31.10;65.10;;;;;;4808920;29;20208;-80
2021/05/09 16:54:00;;;;;;;3.77;1.43;;;31.00;66.50;;;;;;4837589;29;20234;-83
2021/05/09 16:56:26;;;;;;;1.10;1.00;;;31.00;66.00;;;;;;4808474;29;20443;-79
2021/05/09 16:58:51;;;;;;;1.60;1.10;;;31.00;63.70;;;;;;4808423;29;20503;-79
2021/05/09 17:01:18;;;;;;;5.90;1.37;;;30.60;63.60;;;;;;4808769;29;20194;-79
2021/05/09 17:03:45;;;;;;;2.80;1.47;;;30.40;64.50;;;;;;4808423;29;20570;-78
2021/05/09 17:06:13;;;;;;;1.87;1.30;;;30.10;63.60;;;;;;4807955;29;20443;-79
2021/05/09 17:08:39;;;;;;;3.20;1.43;;;29.80;64.20;;;;;;4808424;29;20462;-79
2021/05/09 17:11:06;;;;;;;2.90;1.20;;;29.50;63.30;;;;;;4808436;29;20479;-79
2021/05/09 17:13:31;;;;;;;4.40;1.40;;;29.40;64.50;;;;;;4808448;29;20241;-80
2021/05/09 17:15:57;;;;;;;2.33;1.20;;;29.20;64.60;;;;;;4837442;29;20439;-81
2021/05/09 17:18:23;;;;;;;6.43;1.43;;;29.00;65.20;;;;;;4808916;29;20713;-80
2021/05/09 17:20:49;;;;;;;2.17;1.20;;;29.00;66.40;;;;;;4837810;29;20252;-81
2021/05/09 17:23:14;;;;;;;1.50;1.13;;;28.80;66.40;;;;;;4808313;29;20178;-81
2021/05/09 17:25:40;;;;;;;2.30;1.43;;;28.60;66.10;;;;;;4808124;29;20208;-81
2021/05/09 17:28:06;;;;;;;2.83;1.27;;;28.50;66.90;;;;;;4808273;29;20424;-81
2021/05/09 17:30:32;;;;;;;3.83;1.43;;;28.30;68.60;;;;;;4808349;29;20214;-81
2021/05/09 17:32:58;;;;;;;3.30;1.50;;;28.20;68.60;;;;;;4808225;29;21021;-81
2021/05/09 17:35:23;;;;;;;2.70;1.47;;;28.10;68.20;;;;;;4807569;29;20209;-81
2021/05/09 17:37:50;;;;;;;1.73;1.13;;;28.00;69.40;;;;;;4837010;29;20230;-81
2021/05/09 17:40:16;;;;;;;2.47;1.00;;;27.80;69.60;;;;;;4808105;29;20199;-82
2021/05/09 17:42:42;;;;;;;1.17;1.07;;;27.60;69.50;;;;;;4837237;29;20447;-80
2021/05/09 17:45:10;;;;;;;2.80;1.23;;;27.50;70.30;;;;;;4807389;29;20448;-82
2021/05/09 17:47:36;;;;;;;3.57;1.50;;;27.30;72.00;;;;;;4807626;29;20439;-80
2021/05/09 17:50:04;;;;;;;2.50;1.40;;;27.40;71.60;;;;;;4836555;29;20475;-80
2021/05/09 17:52:30;;;;;;;2.50;1.30;;;27.30;71.30;;;;;;4807625;29;20507;-79
2021/05/09 17:54:56;;;;;;;2.77;1.30;;;27.20;71.40;;;;;;4807120;29;20531;-80
2021/05/09 17:57:22;;;;;;;2.43;1.13;;;26.70;72.70;;;;;;4807281;29;20237;-81
2021/05/09 17:59:48;;;;;;;2.30;1.20;;;26.90;73.50;;;;;;4836976;29;20178;-80
2021/05/09 18:02:14;;;;;;;2.70;1.20;;;26.80;73.80;;;;;;4807549;29;20424;-81
2021/05/09 18:04:40;;;;;;;4.00;1.40;;;26.80;73.10;;;;;;4820900;29;20444;-80
2021/05/09 18:07:06;;;;;;;2.50;1.30;;;26.80;73.20;;;;;;4807157;29;20182;-80
2021/05/09 18:09:35;;;;;;;6.97;1.83;;;26.60;74.00;;;;;;4807167;29;20197;-80
2021/05/09 18:12:00;;;;;;;2.70;1.20;;;26.50;76.10;;;;;;4807201;29;20476;-81
2021/05/09 18:14:28;;;;;;;3.93;1.30;;;26.60;75.20;;;;;;4806026;29;20432;-80
2021/05/09 18:17:03;;;;;;;5.27;1.93;;;26.60;76.50;;;;;;4836093;29;20677;-82
2021/05/09 18:19:42;;;;;;;5.33;2.23;;;26.50;75.00;;;;;;4833896;29;20430;-82
2021/05/09 18:24:52;;;;;;;4.13;1.20;;;26.20;78.10;;;;;;4806992;29;20443;-82
2021/05/09 18:27:18;;;;;;;1.47;1.30;;;26.20;77.10;;;;;;4836238;29;20423;-81
2021/05/09 18:29:44;;;;;;;3.13;1.60;;;26.20;77.70;;;;;;4806817;29;20556;-80
2021/05/09 18:32:10;;;;;;;1.50;1.17;;;25.90;77.90;;;;;;4806946;29;20210;-80
2021/05/09 18:34:37;;;;;;;2.47;1.37;;;25.70;79.00;;;;;;4806548;29;20524;-81
2021/05/09 18:37:03;;;;;;;1.63;1.13;;;25.60;78.50;;;;;;4806928;29;20416;-80
2021/05/09 18:39:29;;;;;;;1.40;1.30;;;25.60;78.90;;;;;;4806931;29;20419;-81
2021/05/09 18:41:54;;;;;;;1.83;1.33;;;25.50;81.60;;;;;;4806514;29;20430;-80
2021/05/09 18:44:20;;;;;;;1.80;1.60;;;25.40;82.30;;;;;;4826785;29;20194;-81
2021/05/09 18:46:46;;;;;;;3.30;1.43;;;25.40;82.50;;;;;;4805776;29;20186;-81
2021/05/09 18:49:14;;;;;;;2.07;1.27;;;25.20;80.80;;;;;;4806586;29;20446;-80
2021/05/09 18:51:40;;;;;;;2.20;1.30;;;24.90;83.90;;;;;;4806247;29;20245;-79
2021/05/09 18:54:06;;;;;;;1.20;0.87;;;24.70;81.10;;;;;;4806432;29;20470;-79
2021/05/09 18:56:32;;;;;;;3.37;1.37;;;24.70;82.70;;;;;;4806502;29;20209;-81
2021/05/09 18:59:00;;;;;;;4.47;1.50;;;24.60;84.60;;;;;;4820437;29;20206;-81
2021/05/09 19:01:26;;;;;;;3.00;1.40;;;24.70;85.50;;;;;;4806548;29;20443;-81
2021/05/09 19:03:53;;;;;;;5.17;1.47;;;24.50;88.20;;;;;;4806478;29;20781;-80
2021/05/09 19:06:31;;;;;;;2.37;1.63;;;24.50;86.50;;;;;;4819794;29;20202;-83
2021/05/09 19:08:57;;;;;;;2.93;1.60;;;24.40;88.20;;;;;;4819850;29;20943;-83
2021/05/09 19:11:29;;;;;;;3.00;1.47;;;24.20;88.10;;;;;;4806270;29;20471;-83
2021/05/09 19:13:55;;;;;;;1.40;1.23;;;23.90;89.00;;;;;;4806181;29;20519;-83
2021/05/09 19:16:21;;;;;;;2.03;1.27;;;23.80;88.10;;;;;;4805781;29;20539;-81
2021/05/09 19:18:49;;;;;;;6.40;1.50;;;23.80;87.20;;;;;;4805749;29;20189;-84
2021/05/09 19:21:24;;;;;;;5.07;1.70;;;23.80;86.00;;;;;;4822545;29;20428;-84
2021/05/09 19:23:52;;;;;;;1.67;1.27;;;23.60;87.40;;;;;;4806099;29;20476;-84
2021/05/09 19:26:22;;;;;;;1.30;1.07;;;23.60;87.40;;;;;;4805539;29;20447;-83
2021/05/09 19:28:57;;;;;;;2.03;1.10;;;23.50;88.40;;;;;;4834642;29;20416;-84
2021/05/09 19:31:23;;;;;;;2.60;1.53;;;23.40;88.70;;;;;;4806122;29;20505;-82
2021/05/09 19:33:49;;;;;;;6.00;1.80;;;23.30;89.40;;;;;;4806099;29;20791;-83
2021/05/09 19:36:15;;;;;;;2.93;1.53;;;23.20;88.40;;;;;;4805478;29;20435;-83
2021/05/09 19:38:41;;;;;;;2.93;1.23;;;23.20;86.70;;;;;;4806128;29;20476;-82
2021/05/09 19:41:08;;;;;;;4.00;1.30;;;23.10;87.60;;;;;;4805657;29;20183;-82
2021/05/09 19:43:34;;;;;;;2.93;1.30;;;23.00;89.10;;;;;;4804651;29;20438;-84
2021/05/09 19:46:00;;;;;;;2.47;1.47;;;22.80;89.40;;;;;;4804754;29;20455;-83
2021/05/09 19:48:26;;;;;;;7.03;1.67;;;22.70;88.80;;;;;;4805527;29;20448;-83
2021/05/09 19:50:53;;;;;;;4.80;1.20;;;22.80;89.10;;;;;;4804447;29;20218;-81
2021/05/09 19:53:22;;;;;;;2.70;1.60;;;22.70;90.10;;;;;;4803905;29;20435;-82
2021/05/09 19:55:54;;;;;;;1.50;1.10;;;22.60;89.90;;;;;;4805433;29;20455;-84
2021/05/09 19:58:24;;;;;;;2.83;1.40;;;22.60;90.30;;;;;;4805317;29;20499;-81
2021/05/09 20:00:50;;;;;;;3.20;1.27;;;22.60;90.20;;;;;;4805780;29;20437;-83
2021/05/09 20:03:17;;;;;;;1.87;1.20;;;22.50;90.10;;;;;;4823413;29;20535;-82
2021/05/09 20:05:44;;;;;;;9.40;2.17;;;22.50;90.40;;;;;;4805229;29;20603;-82
2021/05/09 20:08:12;;;;;;;3.13;1.10;;;22.40;90.60;;;;;;4805610;29;20436;-84
2021/05/09 20:10:41;;;;;;;2.90;1.50;;;22.40;90.80;;;;;;4804472;29;20535;-84
2021/05/09 20:13:10;;;;;;;5.63;1.47;;;22.30;91.10;;;;;;4805886;29;20426;-84
2021/05/09 20:15:37;;;;;;;2.37;1.37;;;22.30;91.20;;;;;;4805087;29;20984;-81
2021/05/09 20:18:04;;;;;;;5.33;1.53;;;22.20;91.10;;;;;;4804630;29;20424;-83
2021/05/09 20:20:30;;;;;;;6.20;1.40;;;22.20;91.30;;;;;;4835039;29;20428;-83
2021/05/09 20:22:56;;;;;;;5.97;1.60;;;22.20;91.50;;;;;;4804965;29;20435;-83
2021/05/09 20:25:22;;;;;;;1.93;1.07;;;22.10;91.70;;;;;;4805368;29;20882;-85
2021/05/09 20:27:47;;;;;;;2.50;1.43;;;22.00;92.60;;;;;;4805409;29;20456;-84
2021/05/09 20:30:13;;;;;;;3.63;1.30;;;22.00;92.70;;;;;;4834605;29;20591;-83
2021/05/09 20:32:39;;;;;;;2.33;1.60;;;21.90;93.20;;;;;;4805315;29;20191;-84
2021/05/09 20:35:05;;;;;;;3.90;1.90;;;21.90;93.70;;;;;;4804928;29;20463;-81
2021/05/09 20:37:31;;;;;;;2.70;1.47;;;21.90;93.30;;;;;;4806047;29;20270;-82
2021/05/09 20:39:57;;;;;;;2.23;1.20;;;21.80;93.90;;;;;;4838020;29;20514;-81
2021/05/09 20:42:24;;;;;;;2.67;1.33;;;21.80;93.30;;;;;;4808952;29;20214;-85
2021/05/09 20:44:51;;;;;;;3.27;1.50;;;21.80;93.70;;;;;;4807144;29;20455;-80
2021/05/09 20:47:18;;;;;;;3.10;1.50;;;21.70;95.00;;;;;;4808973;29;20423;-83
2021/05/09 20:49:44;;;;;;;4.20;1.37;;;21.80;94.50;;;;;;4808744;29;20424;-84
2021/05/09 20:52:10;;;;;;;1.90;1.33;;;21.70;95.40;;;;;;4808799;29;20442;-85
2021/05/09 20:54:36;;;;;;;1.30;1.07;;;21.70;94.80;;;;;;4807231;29;20458;-83